SAST/TTG METAR and TAF weather

Enter ICAO airport designator
Station Type Date Time Source
SAST METAR 2018/10/14 12:41 UTC NOAA

SAST 141241Z 23002KT 9999 SCT008 OVC020 15/15 Q1018


Station Type Date Time Source
SAST Decoded METAR 2018/10/14 12:41 UTC NOAA

Tartagal Aerodrome, Argentina (SAST) 22-39S 063-49W 450M
Oct 14, 2018 - 08:41 AM EDT / 2018.10.14 1241 UTC
Wind: from the SW (230 degrees) at 2 MPH (2 KT):0
Visibility: greater than 7 mile(s):0
Sky conditions: overcast
Temperature: 59 F (15 C)
Dew Point: 59 F (15 C)
Relative Humidity: 100%
Pressure (altimeter): 30.06 in. Hg (1018 hPa)
ob: SAST 141241Z 23002KT 9999 SCT008 OVC020 15/15 Q1018
cycle: 12

Station Type Date Time Source
SAST TAF UTC NOAA

Error!


Example: see airport list